^^
Station Historical Data
Daily Summary for July 12, 2018 Units:  Both    English   Metric
« Previous Day
Next Day »
Daily Weekly Monthly Yearly Custom
  High: Low: Average:
Temperature: TemperatureF °F /  -17.8 °C 59.2 °F /  15.1 °C 66.6 °F /  19.2 °C
Dew Point: DewpointF °F /  -17.8 °C 57.2 °F /  14 °C 64.5 °F /  18.1 °C
Humidity: Humidity% 79% 93%
Wind Speed: WindSpeedMPHmph /  0km/h - 0.9mph /  1.4km/h
Wind Gust: WindSpeedGustMPHmph /  0km/h - -
Wind- - SSW
Pressure: PressureIn in /  0 hPa 30.03 in /  1016.8 hPa -
Precipitation: 0.37 in /  9.4 mm    
Historical Graphs
 
 
Tabular Data for July 12, 2018
Time Temperature Dew Point Pressure Wind Wind Speed Wind Gust Humidity Rainfall Rate (Hourly) solar Conditions
TemperatureF °F /  -17.8 °C DewpointF °F /  -17.8 °C PressureInin /  0hPa Calm     Humidity% HourlyPrecipInin /  0mm SolarRadiationWatts/m^2 W/m2 Conditions
00:04 63.1 °F /  17.3 °C 59.5 °F /  15.3 °C 30.14in /  1020.5hPa Calm     88% 0.00in /  0mm 0.00 W/m2 SCT
00:09 63.1 °F /  17.3 °C 59.5 °F /  15.3 °C 30.14in /  1020.5hPa Calm     88% 0.00in /  0mm 0.00 W/m2 SCT
00:14 63.1 °F /  17.3 °C 59.5 °F /  15.3 °C 30.14in /  1020.5hPa Calm     88% 0.00in /  0mm 0.00 W/m2 SCT
00:19 63.0 °F /  17.2 °C 59.3 °F /  15.2 °C 30.14in /  1020.5hPa Calm     88% 0.00in /  0mm 0.00 W/m2 SCT
00:24 63.0 °F /  17.2 °C 59.3 °F /  15.2 °C 30.14in /  1020.5hPa Calm     88% 0.00in /  0mm 0.00 W/m2 SCT
00:29 62.8 °F /  17.1 °C 59.2 °F /  15.1 °C 30.13in /  1020.2hPa Calm     88% 0.00in /  0mm 0.00 W/m2 SCT
00:34 62.4 °F /  16.9 °C 59.4 °F /  15.2 °C 30.13in /  1020.2hPa Calm     90% 0.00in /  0mm 0.00 W/m2 SCT
00:39 62.2 °F /  16.8 °C 59.6 °F /  15.3 °C 30.13in /  1020.2hPa Calm     91% 0.00in /  0mm 0.00 W/m2 SCT
00:44 62.2 °F /  16.8 °C 59.6 °F /  15.3 °C 30.14in /  1020.5hPa Calm   0.2mph /  0.3km/h 91% 0.00in /  0mm 0.00 W/m2 SCT
00:49 61.9 °F /  16.6 °C 59.2 °F /  15.1 °C 30.13in /  1020.2hPa Calm     91% 0.00in /  0mm 0.00 W/m2 SCT
00:54 62.1 °F /  16.7 °C 60.0 °F /  15.6 °C 30.13in /  1020.2hPa West 1.2mph /  1.9km/h 0.2mph /  0.3km/h 93% 0.00in /  0mm 0.00 W/m2 SCT
00:59 62.2 °F /  16.8 °C 59.6 °F /  15.3 °C 30.13in /  1020.2hPa Calm   0.2mph /  0.3km/h 91% 0.00in /  0mm 0.00 W/m2 SCT
01:04 62.2 °F /  16.8 °C 59.6 °F /  15.3 °C 30.14in /  1020.5hPa Calm   0.2mph /  0.3km/h 91% 0.00in /  0mm 0.00 W/m2 BKN
01:09 61.9 °F /  16.6 °C 59.8 °F /  15.4 °C 30.13in /  1020.2hPa Calm     93% 0.00in /  0mm 0.00 W/m2 BKN
01:14 62.1 °F /  16.7 °C 60.0 °F /  15.6 °C 30.13in /  1020.2hPa Calm     93% 0.00in /  0mm 0.00 W/m2 BKN
01:19 62.1 °F /  16.7 °C 60.0 °F /  15.6 °C 30.13in /  1020.2hPa Calm     93% 0.00in /  0mm 0.00 W/m2 BKN
01:24 62.1 °F /  16.7 °C 60.0 °F /  15.6 °C 30.13in /  1020.2hPa Calm     93% 0.00in /  0mm 0.00 W/m2 BKN
01:29 62.2 °F /  16.8 °C 60.2 °F /  15.7 °C 30.13in /  1020.2hPa Calm     93% 0.00in /  0mm 0.00 W/m2 BKN
01:34 62.2 °F /  16.8 °C 60.2 °F /  15.7 °C 30.13in /  1020.2hPa Calm     93% 0.00in /  0mm 0.00 W/m2 BKN
01:39 62.1 °F /  16.7 °C 60.0 °F /  15.6 °C 30.13in /  1020.2hPa Calm     93% 0.00in /  0mm 0.00 W/m2 BKN
01:44 62.4 °F /  16.9 °C 60.4 °F /  15.8 °C 30.13in /  1020.2hPa Calm     93% 0.00in /  0mm 0.00 W/m2 BKN
01:49 62.2 °F /  16.8 °C 60.2 °F /  15.7 °C 30.14in /  1020.5hPa Calm     93% 0.00in /  0mm 0.00 W/m2 BKN
01:54 62.2 °F /  16.8 °C 60.2 °F /  15.7 °C 30.13in /  1020.2hPa Calm     93% 0.00in /  0mm 0.00 W/m2 BKN
01:59 62.2 °F /  16.8 °C 60.2 °F /  15.7 °C 30.12in /  1019.9hPa Calm     93% 0.00in /  0mm 0.00 W/m2 BKN
02:04 62.1 °F /  16.7 °C 60.0 °F /  15.6 °C 30.13in /  1020.2hPa Calm     93% 0.00in /  0mm 0.00 W/m2 CLR
02:09 62.2 °F /  16.8 °C 60.2 °F /  15.7 °C 30.13in /  1020.2hPa Calm     93% 0.00in /  0mm 0.00 W/m2 CLR
02:14 62.2 °F /  16.8 °C 60.2 °F /  15.7 °C 30.13in /  1020.2hPa Calm     93% 0.00in /  0mm 0.00 W/m2 CLR
02:19 62.1 °F /  16.7 °C 60.0 °F /  15.6 °C 30.13in /  1020.2hPa Calm     93% 0.00in /  0mm 0.00 W/m2 CLR
02:24 62.1 °F /  16.7 °C 60.0 °F /  15.6 °C 30.13in /  1020.2hPa Calm     93% 0.00in /  0mm 0.00 W/m2 CLR
02:29 61.9 °F /  16.6 °C 59.8 °F /  15.4 °C 30.13in /  1020.2hPa Calm     93% 0.00in /  0mm 0.00 W/m2 CLR
02:34 61.7 °F /  16.5 °C 60.3 °F /  15.7 °C 30.12in /  1019.9hPa Calm     95% 0.00in /  0mm 0.00 W/m2 CLR
02:39 61.9 °F /  16.6 °C 60.4 °F /  15.8 °C 30.12in /  1019.9hPa Calm     95% 0.00in /  0mm 0.00 W/m2 CLR
02:44 61.9 °F /  16.6 °C 60.4 °F /  15.8 °C 30.12in /  1019.9hPa Calm     95% 0.00in /  0mm 0.00 W/m2 CLR
02:49 61.9 °F /  16.6 °C 59.8 °F /  15.4 °C 30.12in /  1019.9hPa Calm     93% 0.00in /  0mm 0.00 W/m2 CLR
02:54 61.5 °F /  16.4 °C 59.5 °F /  15.3 °C 30.12in /  1019.9hPa Calm     93% 0.00in /  0mm 0.00 W/m2 CLR
02:59 61.3 °F /  16.3 °C 59.9 °F /  15.5 °C 30.13in /  1020.2hPa Calm     95% 0.00in /  0mm 0.00 W/m2 CLR
03:04 61.2 °F /  16.2 °C 60.0 °F /  15.6 °C 30.13in /  1020.2hPa Calm     96% 0.00in /  0mm 0.00 W/m2 SCT
03:09 61.2 °F /  16.2 °C 60.0 °F /  15.6 °C 30.13in /  1020.2hPa Calm     96% 0.00in /  0mm 0.00 W/m2 SCT
03:14 61.0 °F /  16.1 °C 59.8 °F /  15.4 °C 30.13in /  1020.2hPa Calm     96% 0.00in /  0mm 0.00 W/m2 SCT
03:19 61.0 °F /  16.1 °C 59.8 °F /  15.4 °C 30.13in /  1020.2hPa Calm     96% 0.00in /  0mm 0.00 W/m2 SCT
03:24 60.6 °F /  15.9 °C 59.5 °F /  15.3 °C 30.13in /  1020.2hPa Calm     96% 0.00in /  0mm 0.00 W/m2 SCT
03:29 60.6 °F /  15.9 °C 59.5 °F /  15.3 °C 30.13in /  1020.2hPa Calm     96% 0.00in /  0mm 0.00 W/m2 SCT
03:34 60.6 °F /  15.9 °C 59.5 °F /  15.3 °C 30.13in /  1020.2hPa Calm     96% 0.00in /  0mm 0.00 W/m2 SCT
03:39 60.4 °F /  15.8 °C 59.3 °F /  15.2 °C 30.13in /  1020.2hPa Calm     96% 0.00in /  0mm 0.00 W/m2 SCT
03:44 60.3 °F /  15.7 °C 59.1 °F /  15.1 °C 30.11in /  1019.5hPa Calm     96% 0.00in /  0mm 0.00 W/m2 SCT
03:49 60.3 °F /  15.7 °C 59.1 °F /  15.1 °C 30.13in /  1020.2hPa Calm     96% 0.00in /  0mm 0.00 W/m2 SCT
03:54 60.1 °F /  15.6 °C 59.5 °F /  15.3 °C 30.11in /  1019.5hPa Calm     98% 0.00in /  0mm 0.00 W/m2 SCT
03:59 59.9 °F /  15.5 °C 59.3 °F /  15.2 °C 30.11in /  1019.5hPa Calm     98% 0.00in /  0mm 0.00 W/m2 SCT
04:04 59.9 °F /  15.5 °C 59.3 °F /  15.2 °C 30.11in /  1019.5hPa Calm     98% 0.00in /  0mm 0.00 W/m2 CLR
04:09 60.1 °F /  15.6 °C 59.5 °F /  15.3 °C 30.12in /  1019.9hPa Calm     98% 0.00in /  0mm 0.00 W/m2 CLR
04:14 59.9 °F /  15.5 °C 59.3 °F /  15.2 °C 30.12in /  1019.9hPa Calm     98% 0.00in /  0mm 0.00 W/m2 CLR
04:19 59.9 °F /  15.5 °C 59.3 °F /  15.2 °C 30.12in /  1019.9hPa Calm     98% 0.00in /  0mm 0.00 W/m2 CLR
04:24 59.7 °F /  15.4 °C 59.2 °F /  15.1 °C 30.12in /  1019.9hPa Calm     98% 0.00in /  0mm 0.00 W/m2 CLR
04:29 59.4 °F /  15.2 °C 58.8 °F /  14.9 °C 30.12in /  1019.9hPa Calm     98% 0.00in /  0mm 0.00 W/m2 CLR
04:34 59.4 °F /  15.2 °C 58.8 °F /  14.9 °C 30.11in /  1019.5hPa Calm     98% 0.00in /  0mm 0.00 W/m2 CLR
04:39 59.4 °F /  15.2 °C 58.8 °F /  14.9 °C 30.11in /  1019.5hPa Calm     98% 0.00in /  0mm 0.00 W/m2 CLR
04:44 59.4 °F /  15.2 °C 58.8 °F /  14.9 °C 30.11in /  1019.5hPa Calm     98% 0.00in /  0mm 0.00 W/m2 CLR
04:49 59.4 °F /  15.2 °C 58.8 °F /  14.9 °C 30.11in /  1019.5hPa Calm     98% 0.00in /  0mm 0.00 W/m2 CLR
04:54 59.2 °F /  15.1 °C 58.6 °F /  14.8 °C 30.11in /  1019.5hPa Calm     98% 0.00in /  0mm 0.00 W/m2 CLR
04:59 59.2 °F /  15.1 °C 58.6 °F /  14.8 °C 30.11in /  1019.5hPa Calm     98% 0.00in /  0mm 0.00 W/m2 CLR
05:04 59.2 °F /  15.1 °C 58.6 °F /  14.8 °C 30.11in /  1019.5hPa Calm     98% 0.00in /  0mm 0.00 W/m2 FEW
05:09 59.4 °F /  15.2 °C 58.8 °F /  14.9 °C 30.11in /  1019.5hPa Calm     98% 0.00in /  0mm 0.00 W/m2 FEW
05:14 59.4 °F /  15.2 °C 58.8 °F /  14.9 °C 30.11in /  1019.5hPa Calm     98% 0.00in /  0mm 0.00 W/m2 FEW
05:19 59.4 °F /  15.2 °C 58.8 °F /  14.9 °C 30.11in /  1019.5hPa Calm     98% 0.00in /  0mm 0.00 W/m2 FEW
05:24 59.7 °F /  15.4 °C 59.2 °F /  15.1 °C 30.12in /  1019.9hPa Calm     98% 0.00in /  0mm 0.00 W/m2 FEW
05:29 59.7 °F /  15.4 °C 59.2 °F /  15.1 °C 30.11in /  1019.5hPa Calm     98% 0.00in /  0mm 0.00 W/m2 FEW
05:34 59.9 °F /  15.5 °C 59.3 °F /  15.2 °C 30.11in /  1019.5hPa WSW 1.2mph /  1.9km/h 0.2mph /  0.3km/h 98% 0.00in /  0mm 0.00 W/m2 FEW
05:39 59.9 °F /  15.5 °C 59.3 °F /  15.2 °C 30.12in /  1019.9hPa South 2.0mph /  3.2km/h 0.2mph /  0.3km/h 98% 0.00in /  0mm 0.00 W/m2 FEW
05:44 59.7 °F /  15.4 °C 59.2 °F /  15.1 °C 30.13in /  1020.2hPa Calm   0.2mph /  0.3km/h 98% 0.00in /  0mm 0.00 W/m2 FEW
05:49 59.9 °F /  15.5 °C 59.3 °F /  15.2 °C 30.12in /  1019.9hPa Calm     98% 0.00in /  0mm 0.00 W/m2 FEW
05:54 60.1 °F /  15.6 °C 59.5 °F /  15.3 °C 30.13in /  1020.2hPa Calm     98% 0.00in /  0mm 0.00 W/m2 FEW
05:59 60.3 °F /  15.7 °C 59.1 °F /  15.1 °C 30.13in /  1020.2hPa Calm     96% 0.00in /  0mm 0.00 W/m2 FEW
06:04 60.3 °F /  15.7 °C 58.8 °F /  14.9 °C 30.14in /  1020.5hPa WNW 0.9mph /  1.4km/h 0.2mph /  0.3km/h 95% 0.00in /  0mm 0.00 W/m2 OVC
06:09 61.0 °F /  16.1 °C 58.3 °F /  14.6 °C 30.14in /  1020.5hPa North 2.3mph /  3.7km/h 0.2mph /  0.3km/h 91% 0.00in /  0mm 0.00 W/m2 OVC
06:14 61.2 °F /  16.2 °C 58.2 °F /  14.6 °C 30.14in /  1020.5hPa East 0.9mph /  1.4km/h 0.4mph /  0.6km/h 90% 0.00in /  0mm 110.80 W/m2 OVC
06:19 61.2 °F /  16.2 °C 58.2 °F /  14.6 °C 30.14in /  1020.5hPa Calm   0.2mph /  0.3km/h 90% 0.00in /  0mm 138.10 W/m2 OVC
06:24 61.5 °F /  16.4 °C 57.9 °F /  14.4 °C 30.14in /  1020.5hPa ESE 1.2mph /  1.9km/h 0.2mph /  0.3km/h 88% 0.00in /  0mm 172.40 W/m2 OVC
06:29 61.3 °F /  16.3 °C 57.8 °F /  14.3 °C 30.14in /  1020.5hPa Calm     88% 0.00in /  0mm 172.40 W/m2 OVC
06:34 61.5 °F /  16.4 °C 57.9 °F /  14.4 °C 30.14in /  1020.5hPa Calm     88% 0.00in /  0mm 200.70 W/m2 OVC
06:39 61.7 °F /  16.5 °C 58.1 °F /  14.5 °C 30.14in /  1020.5hPa ESE 1.2mph /  1.9km/h 0.2mph /  0.3km/h 88% 0.00in /  0mm 214.80 W/m2 OVC
06:44 61.5 °F /  16.4 °C 57.3 °F /  14.1 °C 30.14in /  1020.5hPa Calm     86% 0.00in /  0mm 221.90 W/m2 OVC
06:49 61.9 °F /  16.6 °C 57.6 °F /  14.2 °C 30.12in /  1019.9hPa Calm     86% 0.00in /  0mm 233.00 W/m2 OVC
06:54 61.9 °F /  16.6 °C 57.6 °F /  14.2 °C 30.12in /  1019.9hPa Calm     86% 0.00in /  0mm 237.00 W/m2 OVC
06:59 62.1 °F /  16.7 °C 57.8 °F /  14.3 °C 30.13in /  1020.2hPa Calm     86% 0.00in /  0mm 242.10 W/m2 OVC
07:04 62.1 °F /  16.7 °C 57.8 °F /  14.3 °C 30.13in /  1020.2hPa Calm     86% 0.00in /  0mm 247.10 W/m2 BKN
07:09 62.4 °F /  16.9 °C 57.2 °F /  14 °C 30.14in /  1020.5hPa Calm   0.2mph /  0.3km/h 83% 0.00in /  0mm 252.20 W/m2 BKN
07:14 62.4 °F /  16.9 °C 57.2 °F /  14 °C 30.14in /  1020.5hPa West 2.0mph /  3.2km/h 0.2mph /  0.3km/h 83% 0.00in /  0mm 257.20 W/m2 BKN
07:19 63.0 °F /  17.2 °C 57.7 °F /  14.3 °C 30.14in /  1020.5hPa WNW 1.2mph /  1.9km/h 0.4mph /  0.6km/h 83% 0.00in /  0mm 258.30 W/m2 BKN
07:24 63.0 °F /  17.2 °C 57.7 °F /  14.3 °C 30.14in /  1020.5hPa West 1.2mph /  1.9km/h 1.1mph /  1.8km/h 83% 0.00in /  0mm 249.20 W/m2 BKN
07:29 63.0 °F /  17.2 °C 57.7 °F /  14.3 °C 30.14in /  1020.5hPa West 0.9mph /  1.4km/h 0.4mph /  0.6km/h 83% 0.00in /  0mm 241.10 W/m2 BKN
07:34 63.1 °F /  17.3 °C 57.2 °F /  14 °C 30.14in /  1020.5hPa WSW 1.2mph /  1.9km/h 0.4mph /  0.6km/h 81% 0.00in /  0mm 250.20 W/m2 BKN
07:39 63.3 °F /  17.4 °C 57.4 °F /  14.1 °C 30.13in /  1020.2hPa West 0.9mph /  1.4km/h 0.4mph /  0.6km/h 81% 0.00in /  0mm 275.40 W/m2 BKN
07:44 63.3 °F /  17.4 °C 57.4 °F /  14.1 °C 30.14in /  1020.5hPa NNW 1.2mph /  1.9km/h 0.4mph /  0.6km/h 81% 0.00in /  0mm 275.40 W/m2 BKN
07:49 63.7 °F /  17.6 °C 57.7 °F /  14.3 °C 30.13in /  1020.2hPa Calm     81% 0.00in /  0mm 281.50 W/m2 BKN
07:54 63.7 °F /  17.6 °C 57.7 °F /  14.3 °C 30.13in /  1020.2hPa SSW 0.9mph /  1.4km/h 0.2mph /  0.3km/h 81% 0.00in /  0mm 286.50 W/m2 BKN
07:59 63.7 °F /  17.6 °C 57.7 °F /  14.3 °C 30.13in /  1020.2hPa West 0.9mph /  1.4km/h 0.2mph /  0.3km/h 81% 0.00in /  0mm 280.50 W/m2 BKN
08:04 63.7 °F /  17.6 °C 57.7 °F /  14.3 °C 30.13in /  1020.2hPa NNE 2.3mph /  3.7km/h 0.4mph /  0.6km/h 81% 0.00in /  0mm 284.50 W/m2 OVC
08:09 63.9 °F /  17.7 °C 57.9 °F /  14.4 °C 30.14in /  1020.5hPa ENE 2.3mph /  3.7km/h 0.4mph /  0.6km/h 81% 0.00in /  0mm 289.60 W/m2 OVC
08:14 63.9 °F /  17.7 °C 57.9 °F /  14.4 °C 30.14in /  1020.5hPa West 1.2mph /  1.9km/h 0.7mph /  1.1km/h 81% 0.00in /  0mm 284.50 W/m2 OVC
08:19 64.0 °F /  17.8 °C 58.1 °F /  14.5 °C 30.15in /  1020.9hPa West 2.0mph /  3.2km/h 0.4mph /  0.6km/h 81% 0.00in /  0mm 301.70 W/m2 OVC
08:24 64.0 °F /  17.8 °C 58.1 °F /  14.5 °C 30.15in /  1020.9hPa WNW 1.2mph /  1.9km/h 0.2mph /  0.3km/h 81% 0.00in /  0mm 312.80 W/m2 OVC
08:29 64.6 °F /  18.1 °C 58.6 °F /  14.8 °C 30.14in /  1020.5hPa Calm   0.2mph /  0.3km/h 81% 0.00in /  0mm 312.80 W/m2 OVC
08:34 64.8 °F /  18.2 °C 58.4 °F /  14.7 °C 30.14in /  1020.5hPa North 1.2mph /  1.9km/h 0.7mph /  1.1km/h 80% 0.00in /  0mm 310.80 W/m2 OVC
08:39 64.9 °F /  18.3 °C 58.6 °F /  14.8 °C 30.14in /  1020.5hPa Calm     80% 0.00in /  0mm 324.90 W/m2 OVC
08:44 65.1 °F /  18.4 °C 58.8 °F /  14.9 °C 30.14in /  1020.5hPa Calm     80% 0.00in /  0mm 324.90 W/m2 OVC
08:49 65.7 °F /  18.7 °C 59.0 °F /  15 °C 30.14in /  1020.5hPa SW 1.2mph /  1.9km/h 0.2mph /  0.3km/h 79% 0.00in /  0mm 349.20 W/m2 OVC
08:54 65.8 °F /  18.8 °C 59.1 °F /  15.1 °C 30.15in /  1020.9hPa NNE 2.3mph /  3.7km/h 0.2mph /  0.3km/h 79% 0.00in /  0mm 343.10 W/m2 OVC
08:59 65.8 °F /  18.8 °C 59.5 °F /  15.3 °C 30.16in /  1021.2hPa WSW 2.0mph /  3.2km/h 1.6mph /  2.6km/h 80% 0.00in /  0mm 343.10 W/m2 OVC
09:04 65.8 °F /  18.8 °C 59.5 °F /  15.3 °C 30.16in /  1021.2hPa Calm   1.3mph /  2.1km/h 80% 0.00in /  0mm 306.70 W/m2 OVC
09:09 65.7 °F /  18.7 °C 59.3 °F /  15.2 °C 30.16in /  1021.2hPa Calm   0.2mph /  0.3km/h 80% 0.00in /  0mm 295.60 W/m2 OVC
09:14 65.7 °F /  18.7 °C 59.3 °F /  15.2 °C 30.17in /  1021.6hPa Calm   0.2mph /  0.3km/h 80% 0.00in /  0mm 287.50 W/m2 OVC
09:19 65.1 °F /  18.4 °C 59.1 °F /  15.1 °C 30.18in /  1021.9hPa Calm     81% 0.00in /  0mm 273.40 W/m2 OVC
09:24 65.1 °F /  18.4 °C 59.8 °F /  15.4 °C 30.18in /  1021.9hPa Calm     83% 0.00in /  0mm 282.50 W/m2 OVC
09:29 64.9 °F /  18.3 °C 59.7 °F /  15.4 °C 30.19in /  1022.2hPa Calm     83% 0.00in /  0mm 258.30 W/m2 OVC
09:34 64.9 °F /  18.3 °C 59.7 °F /  15.4 °C 30.19in /  1022.2hPa Calm     83% 0.00in /  0mm 262.30 W/m2 OVC
09:39 64.8 °F /  18.2 °C 60.5 °F /  15.8 °C 30.20in /  1022.6hPa Calm     86% 0.00in /  0mm 253.20 W/m2 OVC
09:44 64.4 °F /  18 °C 60.1 °F /  15.6 °C 30.20in /  1022.6hPa Calm   0.2mph /  0.3km/h 86% 0.00in /  0mm 234.00 W/m2 OVC
09:49 64.4 °F /  18 °C 60.8 °F /  16 °C 30.20in /  1022.6hPa Calm     88% 0.00in /  0mm 240.10 W/m2 OVC
09:54 63.3 °F /  17.4 °C 61.3 °F /  16.3 °C 30.19in /  1022.2hPa Calm   0.2mph /  0.3km/h 93% 0.02in /  0.51mm 240.10 W/m2 RA
09:59 63.1 °F /  17.3 °C 61.7 °F /  16.5 °C 30.19in /  1022.2hPa Calm     95% 0.03in /  0.76mm 237.00 W/m2 RA
10:04 63.0 °F /  17.2 °C 61.8 °F /  16.6 °C 30.18in /  1021.9hPa Calm     96% 0.04in /  1.02mm 233.00 W/m2 RA
10:09 62.2 °F /  16.8 °C 61.7 °F /  16.5 °C 30.17in /  1021.6hPa ESE 1.2mph /  1.9km/h 0.2mph /  0.3km/h 98% 0.06in /  1.52mm 231.00 W/m2 RA
10:14 62.1 °F /  16.7 °C 61.5 °F /  16.4 °C 30.17in /  1021.6hPa Calm     98% 0.07in /  1.78mm 232.00 W/m2 RA
10:19 61.9 °F /  16.6 °C 61.3 °F /  16.3 °C 30.18in /  1021.9hPa Calm   0.2mph /  0.3km/h 98% 0.08in /  2.03mm 234.00 W/m2 -RA
10:24 61.7 °F /  16.5 °C 61.1 °F /  16.2 °C 30.17in /  1021.6hPa Calm     98% 0.10in /  2.54mm 242.10 W/m2 -RA
10:29 61.5 °F /  16.4 °C 61.0 °F /  16.1 °C 30.17in /  1021.6hPa Calm     98% 0.12in /  3.05mm 249.20 W/m2 -RA
10:34 61.3 °F /  16.3 °C 60.8 °F /  16 °C 30.18in /  1021.9hPa Calm     98% 0.16in /  4.06mm 259.30 W/m2 -RA
10:39 61.3 °F /  16.3 °C 60.8 °F /  16 °C 30.17in /  1021.6hPa Calm     98% 0.18in /  4.57mm 274.40 W/m2 -RA
10:44 61.3 °F /  16.3 °C 60.8 °F /  16 °C 30.17in /  1021.6hPa Calm     98% 0.19in /  4.83mm 305.70 W/m2 -RA
10:49 61.5 °F /  16.4 °C 61.0 °F /  16.1 °C 30.16in /  1021.2hPa SSE 1.2mph /  1.9km/h 0.2mph /  0.3km/h 98% 0.19in /  4.83mm 313.80 W/m2 -RA
10:54 61.7 °F /  16.5 °C 61.1 °F /  16.2 °C 30.16in /  1021.2hPa SSE 1.2mph /  1.9km/h 0.2mph /  0.3km/h 98% 0.17in /  4.32mm 316.80 W/m2 -RA
10:59 61.7 °F /  16.5 °C 61.1 °F /  16.2 °C 30.17in /  1021.6hPa Calm     98% 0.16in /  4.06mm 318.80 W/m2 -RA
11:04 61.9 °F /  16.6 °C 61.3 °F /  16.3 °C 30.17in /  1021.6hPa Calm     98% 0.15in /  3.81mm 318.80 W/m2 -RA
11:09 61.9 °F /  16.6 °C 61.3 °F /  16.3 °C 30.17in /  1021.6hPa Calm     98% 0.14in /  3.56mm 296.60 W/m2 -RA
11:14 62.1 °F /  16.7 °C 61.5 °F /  16.4 °C 30.17in /  1021.6hPa West 2.0mph /  3.2km/h 0.9mph /  1.4km/h 98% 0.13in /  3.3mm 296.60 W/m2 -RA
11:19 62.1 °F /  16.7 °C 61.5 °F /  16.4 °C 30.16in /  1021.2hPa West 1.2mph /  1.9km/h 1.1mph /  1.8km/h 98% 0.12in /  3.05mm 324.90 W/m2 -RA
11:24 62.2 °F /  16.8 °C 61.7 °F /  16.5 °C 30.16in /  1021.2hPa West 2.3mph /  3.7km/h 1.1mph /  1.8km/h 98% 0.11in /  2.79mm 345.10 W/m2 -RA
11:29 62.2 °F /  16.8 °C 61.7 °F /  16.5 °C 30.16in /  1021.2hPa South 2.3mph /  3.7km/h 1.3mph /  2.1km/h 98% 0.10in /  2.54mm 345.10 W/m2 -RA
11:34 62.2 °F /  16.8 °C 61.7 °F /  16.5 °C 30.16in /  1021.2hPa West 1.2mph /  1.9km/h 1.1mph /  1.8km/h 98% 0.07in /  1.78mm 338.00 W/m2 -RA
11:39 62.2 °F /  16.8 °C 61.7 °F /  16.5 °C 30.15in /  1020.9hPa WNW 3.5mph /  5.6km/h 2.0mph /  3.2km/h 98% 0.06in /  1.52mm 336.00 W/m2 -RA
11:44 62.2 °F /  16.8 °C 61.7 °F /  16.5 °C 30.15in /  1020.9hPa NW 2.3mph /  3.7km/h 0.9mph /  1.4km/h 98% 0.07in /  1.78mm 321.90 W/m2 -RA
11:49 62.2 °F /  16.8 °C 61.7 °F /  16.5 °C 30.14in /  1020.5hPa WNW 4.0mph /  6.4km/h 1.3mph /  2.1km/h 98% 0.09in /  2.29mm 316.80 W/m2 -RA
11:54 62.2 °F /  16.8 °C 61.7 °F /  16.5 °C 30.14in /  1020.5hPa South 1.2mph /  1.9km/h 0.9mph /  1.4km/h 98% 0.10in /  2.54mm 937.00 W/m2 -RA
11:59 62.2 °F /  16.8 °C 61.7 °F /  16.5 °C 30.13in /  1020.2hPa West 2.9mph /  4.7km/h 1.8mph /  2.9km/h 98% 0.12in /  3.05mm 324.90 W/m2 -RA
12:04 62.2 °F /  16.8 °C 61.7 °F /  16.5 °C 30.12in /  1019.9hPa South 2.3mph /  3.7km/h 2.2mph /  3.5km/h 98% 0.13in /  3.3mm 332.00 W/m2 RA
12:09 62.4 °F /  16.9 °C 61.8 °F /  16.6 °C 30.11in /  1019.5hPa SSE 3.5mph /  5.6km/h 2.2mph /  3.5km/h 98% 0.14in /  3.56mm 337.00 W/m2 RA
12:14 62.4 °F /  16.9 °C 61.8 °F /  16.6 °C 30.10in /  1019.2hPa SSE 3.5mph /  5.6km/h 2.2mph /  3.5km/h 98% 0.15in /  3.81mm 335.00 W/m2 RA
12:19 63.0 °F /  17.2 °C 62.4 °F /  16.9 °C 30.10in /  1019.2hPa SE 3.5mph /  5.6km/h 1.6mph /  2.6km/h 98% 0.16in /  4.06mm 336.00 W/m2 RA
12:24 63.1 °F /  17.3 °C 62.6 °F /  17 °C 30.11in /  1019.5hPa West 2.3mph /  3.7km/h 2.0mph /  3.2km/h 98% 0.16in /  4.06mm 353.20 W/m2 RA
12:29 63.7 °F /  17.6 °C 63.1 °F /  17.3 °C 30.11in /  1019.5hPa SSW 3.5mph /  5.6km/h 4.0mph /  6.4km/h 98% 0.15in /  3.81mm 383.50 W/m2 RA
12:34 64.4 °F /  18 °C 63.8 °F /  17.7 °C 30.10in /  1019.2hPa SSW 6.9mph /  11.1km/h 2.2mph /  3.5km/h 98% 0.14in /  3.56mm 432.00 W/m2 BKN
12:39 64.9 °F /  18.3 °C 64.4 °F /  18 °C 30.10in /  1019.2hPa SW 3.5mph /  5.6km/h 2.5mph /  4km/h 98% 0.13in /  3.3mm 526.90 W/m2 BKN
12:44 65.1 °F /  18.4 °C 64.5 °F /  18.1 °C 30.09in /  1018.8hPa WNW 4.9mph /  7.9km/h 2.9mph /  4.7km/h 98% 0.11in /  2.79mm 466.30 W/m2 BKN
12:49 65.8 °F /  18.8 °C 65.3 °F /  18.5 °C 30.09in /  1018.8hPa NNW 4.0mph /  6.4km/h 3.6mph /  5.8km/h 98% 0.09in /  2.29mm 428.90 W/m2 BKN
12:54 65.8 °F /  18.8 °C 65.3 °F /  18.5 °C 30.07in /  1018.2hPa NE 4.6mph /  7.4km/h 3.8mph /  6.1km/h 98% 0.08in /  2.03mm 489.50 W/m2 BKN
12:59 66.6 °F /  19.2 °C 66.0 °F /  18.9 °C 30.08in /  1018.5hPa West 5.8mph /  9.3km/h 4.0mph /  6.4km/h 98% 0.06in /  1.52mm 776.40 W/m2 BKN
13:04 66.6 °F /  19.2 °C 66.0 °F /  18.9 °C 30.08in /  1018.5hPa West 4.0mph /  6.4km/h 4.0mph /  6.4km/h 98% 0.05in /  1.27mm 824.90 W/m2 OVC
13:09 67.8 °F /  19.9 °C 67.2 °F /  19.6 °C 30.09in /  1018.8hPa NNW 4.0mph /  6.4km/h 2.2mph /  3.5km/h 98% 0.03in /  0.76mm 824.90 W/m2 OVC
13:14 68.2 °F /  20.1 °C 67.6 °F /  19.8 °C 30.10in /  1019.2hPa ESE 3.5mph /  5.6km/h 2.5mph /  4km/h 98% 0.02in /  0.51mm 840.00 W/m2 OVC
13:19 68.4 °F /  20.2 °C 67.8 °F /  19.9 °C 30.10in /  1019.2hPa West 3.5mph /  5.6km/h 2.2mph /  3.5km/h 98% 0.01in /  0.25mm 823.80 W/m2 OVC
13:24 69.1 °F /  20.6 °C 68.5 °F /  20.3 °C 30.10in /  1019.2hPa Calm   0.2mph /  0.3km/h 98% 0.00in /  0mm 816.80 W/m2 OVC
13:29 69.4 °F /  20.8 °C 68.9 °F /  20.5 °C 30.09in /  1018.8hPa ESE 1.2mph /  1.9km/h 0.7mph /  1.1km/h 98% 0.00in /  0mm 1153.00 W/m2 OVC
13:34 69.6 °F /  20.9 °C 69.0 °F /  20.6 °C 30.09in /  1018.8hPa Calm     98% 0.00in /  0mm 840.00 W/m2 OVC
13:39 69.6 °F /  20.9 °C 69.0 °F /  20.6 °C 30.08in /  1018.5hPa ESE 3.5mph /  5.6km/h 1.3mph /  2.1km/h 98% 0.00in /  0mm 838.00 W/m2 OVC
13:44 69.6 °F /  20.9 °C 69.0 °F /  20.6 °C 30.08in /  1018.5hPa West 3.5mph /  5.6km/h 3.4mph /  5.5km/h 98% 0.00in /  0mm 825.90 W/m2 OVC
13:49 69.8 °F /  21 °C 69.2 °F /  20.7 °C 30.09in /  1018.8hPa Calm   0.2mph /  0.3km/h 98% 0.00in /  0mm 745.10 W/m2 OVC
13:54 69.8 °F /  21 °C 68.6 °F /  20.3 °C 30.08in /  1018.5hPa SW 2.3mph /  3.7km/h 0.9mph /  1.4km/h 96% 0.00in /  0mm 791.50 W/m2 OVC
13:59 70.0 °F /  21.1 °C 68.8 °F /  20.4 °C 30.09in /  1018.8hPa ESE 2.0mph /  3.2km/h 1.8mph /  2.9km/h 96% 0.00in /  0mm 805.70 W/m2 OVC
14:04 70.3 °F /  21.3 °C 69.1 °F /  20.6 °C 30.10in /  1019.2hPa WSW 1.2mph /  1.9km/h 1.1mph /  1.8km/h 96% 0.00in /  0mm 743.10 W/m2 OVC
14:09 70.3 °F /  21.3 °C 69.1 °F /  20.6 °C 30.10in /  1019.2hPa South 3.5mph /  5.6km/h 1.6mph /  2.6km/h 96% 0.00in /  0mm 743.10 W/m2 OVC
14:14 70.3 °F /  21.3 °C 69.1 °F /  20.6 °C 30.10in /  1019.2hPa South 2.9mph /  4.7km/h 1.6mph /  2.6km/h 96% 0.00in /  0mm 704.70 W/m2 OVC
14:19 70.5 °F /  21.4 °C 69.9 °F /  21.1 °C 30.11in /  1019.5hPa WNW 2.3mph /  3.7km/h 1.3mph /  2.1km/h 98% 0.00in /  0mm 582.50 W/m2 OVC
14:24 70.5 °F /  21.4 °C 69.3 °F /  20.7 °C 30.11in /  1019.5hPa East 3.5mph /  5.6km/h 1.8mph /  2.9km/h 96% 0.00in /  0mm 697.60 W/m2 OVC
14:29 70.3 °F /  21.3 °C 69.1 °F /  20.6 °C 30.12in /  1019.9hPa NNW 2.3mph /  3.7km/h 0.2mph /  0.3km/h 96% 0.00in /  0mm 479.40 W/m2 OVC
14:34 70.3 °F /  21.3 °C 69.1 °F /  20.6 °C 30.11in /  1019.5hPa NW 3.5mph /  5.6km/h 1.1mph /  1.8km/h 96% 0.00in /  0mm 389.60 W/m2 OVC
14:39 70.3 °F /  21.3 °C 69.1 °F /  20.6 °C 30.12in /  1019.9hPa WNW 1.2mph /  1.9km/h 1.1mph /  1.8km/h 96% 0.00in /  0mm 388.50 W/m2 OVC
14:44 70.9 °F /  21.6 °C 69.7 °F /  20.9 °C 30.12in /  1019.9hPa South 2.3mph /  3.7km/h 1.1mph /  1.8km/h 96% 0.00in /  0mm 605.70 W/m2 OVC
14:49 71.1 °F /  21.7 °C 69.9 °F /  21.1 °C 30.12in /  1019.9hPa SSE 1.2mph /  1.9km/h 0.7mph /  1.1km/h 96% 0.00in /  0mm 707.70 W/m2 OVC
14:54 70.9 °F /  21.6 °C 69.4 °F /  20.8 °C 30.12in /  1019.9hPa WSW 2.3mph /  3.7km/h 0.9mph /  1.4km/h 95% 0.00in /  0mm 640.00 W/m2 OVC
14:59 70.9 °F /  21.6 °C 69.4 °F /  20.8 °C 30.11in /  1019.5hPa ESE 2.3mph /  3.7km/h 1.1mph /  1.8km/h 95% 0.00in /  0mm 395.60 W/m2 OVC
15:04 70.5 °F /  21.4 °C 69.0 °F /  20.6 °C 30.11in /  1019.5hPa Calm   0.7mph /  1.1km/h 95% 0.00in /  0mm 407.70 W/m2 OVC
15:09 71.1 °F /  21.7 °C 69.9 °F /  21.1 °C 30.11in /  1019.5hPa SSE 2.3mph /  3.7km/h 0.7mph /  1.1km/h 96% 0.00in /  0mm 452.20 W/m2 OVC
15:14 71.1 °F /  21.7 °C 69.6 °F /  20.9 °C 30.12in /  1019.9hPa ESE 3.5mph /  5.6km/h 1.1mph /  1.8km/h 95% 0.00in /  0mm 496.60 W/m2 OVC
15:19 71.1 °F /  21.7 °C 69.9 °F /  21.1 °C 30.12in /  1019.9hPa West 2.3mph /  3.7km/h 0.4mph /  0.6km/h 96% 0.00in /  0mm 453.20 W/m2 OVC
15:24 70.9 °F /  21.6 °C 69.7 °F /  20.9 °C 30.12in /  1019.9hPa SW 2.0mph /  3.2km/h 0.9mph /  1.4km/h 96% 0.00in /  0mm 398.60 W/m2 OVC
15:29 70.9 °F /  21.6 °C 69.4 °F /  20.8 °C 30.11in /  1019.5hPa South 2.3mph /  3.7km/h 0.7mph /  1.1km/h 95% 0.00in /  0mm 398.60 W/m2 OVC
15:34 71.8 °F /  22.1 °C 69.6 °F /  20.9 °C 30.12in /  1019.9hPa SW 2.3mph /  3.7km/h 0.9mph /  1.4km/h 93% 0.00in /  0mm 386.50 W/m2 OVC
15:39 72.1 °F /  22.3 °C 69.4 °F /  20.8 °C 30.12in /  1019.9hPa SE 3.5mph /  5.6km/h 1.6mph /  2.6km/h 91% 0.00in /  0mm 1135.00 W/m2 OVC
15:44 72.1 °F /  22.3 °C 69.4 °F /  20.8 °C 30.13in /  1020.2hPa SW 1.2mph /  1.9km/h 0.4mph /  0.6km/h 91% 0.00in /  0mm 354.20 W/m2 OVC
15:49 72.1 °F /  22.3 °C 70.0 °F /  21.1 °C 30.12in /  1019.9hPa SSE 1.2mph /  1.9km/h 0.4mph /  0.6km/h 93% 0.00in /  0mm 356.20 W/m2 FEW
15:54 72.1 °F /  22.3 °C 70.0 °F /  21.1 °C 30.12in /  1019.9hPa South 2.3mph /  3.7km/h 0.4mph /  0.6km/h 93% 0.00in /  0mm 378.40 W/m2 FEW
15:59 71.4 °F /  21.9 °C 69.3 °F /  20.7 °C 30.12in /  1019.9hPa West 1.2mph /  1.9km/h 0.4mph /  0.6km/h 93% 0.00in /  0mm 404.70 W/m2 FEW
16:04 71.4 °F /  21.9 °C 69.3 °F /  20.7 °C 30.11in /  1019.5hPa Calm   0.4mph /  0.6km/h 93% 0.00in /  0mm 637.00 W/m2 FEW
16:09 72.5 °F /  22.5 °C 69.7 °F /  20.9 °C 30.11in /  1019.5hPa SE 1.2mph /  1.9km/h 1.3mph /  2.1km/h 91% 0.00in /  0mm 838.00 W/m2 FEW
16:14 72.3 °F /  22.4 °C 69.5 °F /  20.8 °C 30.11in /  1019.5hPa WSW 2.3mph /  3.7km/h 1.1mph /  1.8km/h 91% 0.00in /  0mm 783.40 W/m2 FEW
16:19 72.3 °F /  22.4 °C 69.5 °F /  20.8 °C 30.10in /  1019.2hPa West 2.3mph /  3.7km/h 0.7mph /  1.1km/h 91% 0.00in /  0mm 600.60 W/m2 FEW
16:24 72.5 °F /  22.5 °C 69.7 °F /  20.9 °C 30.10in /  1019.2hPa WNW 1.2mph /  1.9km/h 1.1mph /  1.8km/h 91% 0.00in /  0mm 659.20 W/m2 FEW
16:28 72.7 °F /  22.6 °C 69.9 °F /  21.1 °C 30.09in /  1018.8hPa West 2.3mph /  3.7km/h 1.1mph /  1.8km/h 91% 0.00in /  0mm 582.50 W/m2 FEW
16:34 73.4 °F /  23 °C 69.6 °F /  20.9 °C 30.09in /  1018.8hPa West 3.5mph /  5.6km/h 2.0mph /  3.2km/h 88% 0.00in /  0mm 853.10 W/m2 FEW
16:39 73.8 °F /  23.2 °C 71.0 °F /  21.7 °C 30.09in /  1018.8hPa Calm   0.9mph /  1.4km/h 91% 0.00in /  0mm 1003.00 W/m2 FEW
16:39 73.8 °F /  23.2 °C 71.0 °F /  21.7 °C 30.09in /  1018.8hPa Calm   0.9mph /  1.4km/h 91% 0.00in /  0mm 826.90 W/m2 FEW
16:44 73.0 °F /  22.8 °C 70.3 °F /  21.3 °C 30.07in /  1018.2hPa NNE 3.5mph /  5.6km/h 1.6mph /  2.6km/h 91% 0.00in /  0mm 826.90 W/m2 FEW
16:47 73.4 °F /  23 °C 70.6 °F /  21.4 °C 30.09in /  1018.8hPa NNE 2.9mph /  4.7km/h 1.8mph /  2.9km/h 91% 0.00in /  0mm 738.00 W/m2 FEW
16:49 73.0 °F /  22.8 °C 70.3 °F /  21.3 °C 30.07in /  1018.2hPa NNE 3.5mph /  5.6km/h 1.3mph /  2.1km/h 91% 0.00in /  0mm 738.00 W/m2 FEW
16:54 72.9 °F /  22.7 °C 70.1 °F /  21.2 °C 30.07in /  1018.2hPa Calm   0.9mph /  1.4km/h 91% 0.00in /  0mm 445.10 W/m2 FEW
16:59 72.7 °F /  22.6 °C 69.9 °F /  21.1 °C 30.07in /  1018.2hPa West 3.5mph /  5.6km/h 1.8mph /  2.9km/h 91% 0.00in /  0mm 413.80 W/m2 FEW
17:04 72.7 °F /  22.6 °C 69.9 °F /  21.1 °C 30.07in /  1018.2hPa ESE 1.2mph /  1.9km/h 1.8mph /  2.9km/h 91% 0.00in /  0mm 377.40 W/m2 BKN
17:09 72.9 °F /  22.7 °C 70.7 °F /  21.5 °C 30.06in /  1017.8hPa SSW 1.2mph /  1.9km/h 0.7mph /  1.1km/h 93% 0.00in /  0mm 399.70 W/m2 BKN
17:14 72.7 °F /  22.6 °C 70.5 °F /  21.4 °C 30.06in /  1017.8hPa Calm     93% 0.00in /  0mm 420.90 W/m2 BKN
17:19 72.9 °F /  22.7 °C 70.7 °F /  21.5 °C 30.07in /  1018.2hPa SSW 2.3mph /  3.7km/h 0.4mph /  0.6km/h 93% 0.00in /  0mm 383.50 W/m2 BKN
17:24 73.4 °F /  23 °C 70.6 °F /  21.4 °C 30.07in /  1018.2hPa West 2.3mph /  3.7km/h 0.2mph /  0.3km/h 91% 0.00in /  0mm 416.80 W/m2 BKN
17:29 73.0 °F /  22.8 °C 70.3 °F /  21.3 °C 30.09in /  1018.8hPa Calm   0.2mph /  0.3km/h 91% 0.00in /  0mm 400.70 W/m2 BKN
17:34 73.4 °F /  23 °C 71.3 °F /  21.8 °C 30.09in /  1018.8hPa Calm     93% 0.00in /  0mm 370.40 W/m2 BKN
17:39 73.4 °F /  23 °C 71.3 °F /  21.8 °C 30.09in /  1018.8hPa Calm     93% 0.00in /  0mm 363.30 W/m2 BKN
17:44 74.3 °F /  23.5 °C 71.5 °F /  21.9 °C 30.09in /  1018.8hPa Calm     91% 0.00in /  0mm 359.30 W/m2 BKN
17:49 74.7 °F /  23.7 °C 71.9 °F /  22.2 °C 30.09in /  1018.8hPa Calm     91% 0.00in /  0mm 359.30 W/m2 BKN
17:54 74.8 °F /  23.8 °C 71.0 °F /  21.7 °C 30.08in /  1018.5hPa South 1.2mph /  1.9km/h 0.2mph /  0.3km/h 88% 0.00in /  0mm 348.10 W/m2 BKN
17:59 74.5 °F /  23.6 °C 71.7 °F /  22.1 °C 30.08in /  1018.5hPa Calm     91% 0.00in /  0mm 348.10 W/m2 BKN
18:04 74.5 °F /  23.6 °C 71.4 °F /  21.9 °C 30.07in /  1018.2hPa Calm     90% 0.00in /  0mm 354.20 W/m2 OVC
18:09 74.7 °F /  23.7 °C 71.9 °F /  22.2 °C 30.07in /  1018.2hPa Calm     91% 0.00in /  0mm 367.30 W/m2 OVC
18:14 74.7 °F /  23.7 °C 71.9 °F /  22.2 °C 30.08in /  1018.5hPa Calm     91% 0.00in /  0mm 388.50 W/m2 OVC
18:19 73.9 °F /  23.3 °C 71.1 °F /  21.7 °C 30.07in /  1018.2hPa Calm     91% 0.00in /  0mm 391.60 W/m2 OVC
18:24 73.9 °F /  23.3 °C 71.8 °F /  22.1 °C 30.07in /  1018.2hPa Calm     93% 0.00in /  0mm 405.70 W/m2 OVC
18:29 73.9 °F /  23.3 °C 71.1 °F /  21.7 °C 30.07in /  1018.2hPa Calm     91% 0.00in /  0mm 417.80 W/m2 OVC
18:34 73.9 °F /  23.3 °C 71.1 °F /  21.7 °C 30.07in /  1018.2hPa WNW 2.9mph /  4.7km/h 0.9mph /  1.4km/h 91% 0.00in /  0mm 659.20 W/m2 OVC
18:39 73.9 °F /  23.3 °C 71.1 °F /  21.7 °C 30.06in /  1017.8hPa NW 2.0mph /  3.2km/h 0.9mph /  1.4km/h 91% 0.00in /  0mm 609.70 W/m2 OVC
18:44 73.9 °F /  23.3 °C 71.1 °F /  21.7 °C 30.06in /  1017.8hPa WSW 1.2mph /  1.9km/h 0.7mph /  1.1km/h 91% 0.00in /  0mm 445.10 W/m2 OVC
18:49 74.3 °F /  23.5 °C 71.5 °F /  21.9 °C 30.06in /  1017.8hPa ESE 0.9mph /  1.4km/h 0.2mph /  0.3km/h 91% 0.00in /  0mm 399.70 W/m2 OVC
18:54 73.9 °F /  23.3 °C 71.1 °F /  21.7 °C 30.06in /  1017.8hPa NNE 2.3mph /  3.7km/h 1.6mph /  2.6km/h 91% 0.00in /  0mm 390.60 W/m2 OVC
18:59 74.8 °F /  23.8 °C 72.0 °F /  22.2 °C 30.06in /  1017.8hPa East 2.3mph /  3.7km/h 0.2mph /  0.3km/h 91% 0.00in /  0mm 367.30 W/m2 OVC
19:04 74.8 °F /  23.8 °C 72.0 °F /  22.2 °C 30.06in /  1017.8hPa Calm   0.4mph /  0.6km/h 91% 0.00in /  0mm 362.30 W/m2 BKN
19:09 75.4 °F /  24.1 °C 72.6 °F /  22.6 °C 30.05in /  1017.5hPa ENE 3.5mph /  5.6km/h 0.4mph /  0.6km/h 91% 0.00in /  0mm 353.20 W/m2 BKN
19:14 75.0 °F /  23.9 °C 71.9 °F /  22.2 °C 30.05in /  1017.5hPa ESE 2.3mph /  3.7km/h 0.4mph /  0.6km/h 90% 0.00in /  0mm 353.20 W/m2 BKN
19:19 75.0 °F /  23.9 °C 72.2 °F /  22.3 °C 30.04in /  1017.2hPa SE 2.9mph /  4.7km/h 0.7mph /  1.1km/h 91% 0.00in /  0mm 346.10 W/m2 SCT
19:24 75.4 °F /  24.1 °C 72.2 °F /  22.3 °C 30.04in /  1017.2hPa Calm   0.9mph /  1.4km/h 90% 0.00in /  0mm 365.30 W/m2 SCT
19:29 75.0 °F /  23.9 °C 72.2 °F /  22.3 °C 30.03in /  1016.8hPa SE 1.2mph /  1.9km/h 0.2mph /  0.3km/h 91% 0.00in /  0mm 379.40 W/m2 SCT
19:34 75.0 °F /  23.9 °C 72.2 °F /  22.3 °C 30.04in /  1017.2hPa ESE 1.2mph /  1.9km/h 0.4mph /  0.6km/h 91% 0.00in /  0mm 366.30 W/m2 BKN
19:39 75.4 °F /  24.1 °C 72.6 °F /  22.6 °C 30.04in /  1017.2hPa Calm     91% 0.00in /  0mm 354.20 W/m2 BKN
19:44 75.4 °F /  24.1 °C 72.6 °F /  22.6 °C 30.04in /  1017.2hPa Calm     91% 0.00in /  0mm 339.10 W/m2 BKN
19:49 75.0 °F /  23.9 °C 72.2 °F /  22.3 °C 30.04in /  1017.2hPa ESE 2.3mph /  3.7km/h 0.4mph /  0.6km/h 91% 0.00in /  0mm 335.00 W/m2 BKN
19:54 75.0 °F /  23.9 °C 72.2 °F /  22.3 °C 30.04in /  1017.2hPa East 0.9mph /  1.4km/h   91% 0.00in /  0mm 334.00 W/m2 BKN
19:59 75.0 °F /  23.9 °C 72.2 °F /  22.3 °C 30.04in /  1017.2hPa Calm   0.2mph /  0.3km/h 91% 0.00in /  0mm 331.00 W/m2 BKN
20:04 75.0 °F /  23.9 °C 72.2 °F /  22.3 °C 30.04in /  1017.2hPa Calm   0.2mph /  0.3km/h 91% 0.00in /  0mm 321.90 W/m2 OVC
20:09 74.7 °F /  23.7 °C 72.5 °F /  22.5 °C 30.04in /  1017.2hPa Calm     93% 0.00in /  0mm 306.70 W/m2 OVC
20:14 74.5 °F /  23.6 °C 72.3 °F /  22.4 °C 30.04in /  1017.2hPa SSE 2.3mph /  3.7km/h 0.4mph /  0.6km/h 93% 0.00in /  0mm 301.70 W/m2 OVC
20:19 74.5 °F /  23.6 °C 72.3 °F /  22.4 °C 30.04in /  1017.2hPa SE 2.3mph /  3.7km/h 0.7mph /  1.1km/h 93% 0.00in /  0mm 288.60 W/m2 OVC
20:24 74.3 °F /  23.5 °C 72.1 °F /  22.3 °C 30.04in /  1017.2hPa Calm     93% 0.00in /  0mm 277.40 W/m2 OVC
20:29 73.9 °F /  23.3 °C 71.8 °F /  22.1 °C 30.03in /  1016.8hPa Calm     93% 0.00in /  0mm 271.40 W/m2 OVC
20:34 73.9 °F /  23.3 °C 71.8 °F /  22.1 °C 30.04in /  1017.2hPa Calm     93% 0.00in /  0mm 254.20 W/m2 OVC
20:39 73.9 °F /  23.3 °C 71.8 °F /  22.1 °C 30.04in /  1017.2hPa Calm     93% 0.00in /  0mm 237.00 W/m2 OVC
20:44 73.8 °F /  23.2 °C 72.2 °F /  22.3 °C 30.05in /  1017.5hPa Calm     95% 0.00in /  0mm 241.10 W/m2 OVC
20:49 73.6 °F /  23.1 °C 72.1 °F /  22.3 °C 30.04in /  1017.2hPa Calm     95% 0.00in /  0mm 238.10 W/m2 OVC
20:54 73.4 °F /  23 °C 72.2 °F /  22.3 °C 30.04in /  1017.2hPa Calm     96% 0.00in /  0mm 252.20 W/m2 OVC
20:59 73.0 °F /  22.8 °C 71.8 °F /  22.1 °C 30.04in /  1017.2hPa NNE 1.2mph /  1.9km/h 0.2mph /  0.3km/h 96% 0.00in /  0mm 257.20 W/m2 OVC
21:04 73.0 °F /  22.8 °C 71.8 °F /  22.1 °C 30.04in /  1017.2hPa Calm   0.2mph /  0.3km/h 96% 0.00in /  0mm 260.30 W/m2 OVC
21:09 73.0 °F /  22.8 °C 71.8 °F /  22.1 °C 30.03in /  1016.8hPa Calm     96% 0.00in /  0mm 270.40 W/m2 OVC
21:14 73.0 °F /  22.8 °C 71.8 °F /  22.1 °C 30.04in /  1017.2hPa Calm     96% 0.00in /  0mm 264.30 W/m2 OVC
21:19 73.0 °F /  22.8 °C 71.8 °F /  22.1 °C 30.04in /  1017.2hPa Calm     96% 0.00in /  0mm 245.10 W/m2 OVC
21:24 72.9 °F /  22.7 °C 71.7 °F /  22.1 °C 30.04in /  1017.2hPa Calm     96% 0.00in /  0mm 238.10 W/m2 OVC
21:29 72.7 °F /  22.6 °C 71.5 °F /  21.9 °C 30.05in /  1017.5hPa Calm     96% 0.00in /  0mm 215.80 W/m2 OVC
21:34 72.7 °F /  22.6 °C 71.5 °F /  21.9 °C 30.05in /  1017.5hPa Calm     96% 0.00in /  0mm 222.90 W/m2 OVC
21:39 72.7 °F /  22.6 °C 71.5 °F /  21.9 °C 30.05in /  1017.5hPa Calm     96% 0.00in /  0mm 198.70 W/m2 OVC
21:44 72.3 °F /  22.4 °C 71.1 °F /  21.7 °C 30.04in /  1017.2hPa Calm     96% 0.00in /  0mm 184.50 W/m2 OVC
21:49 72.1 °F /  22.3 °C 70.9 °F /  21.6 °C 30.05in /  1017.5hPa Calm     96% 0.00in /  0mm 178.50 W/m2 OVC
21:54 72.0 °F /  22.2 °C 70.8 °F /  21.6 °C 30.05in /  1017.5hPa Calm     96% 0.00in /  0mm 145.10 W/m2 OVC
21:59 71.8 °F /  22.1 °C 71.2 °F /  21.8 °C 30.05in /  1017.5hPa Calm     98% 0.00in /  0mm 0.00 W/m2 OVC
22:04 71.4 °F /  21.9 °C 70.8 °F /  21.6 °C 30.05in /  1017.5hPa Calm     98% 0.00in /  0mm 0.00 W/m2 OVC
22:09 71.4 °F /  21.9 °C 70.8 °F /  21.6 °C 30.05in /  1017.5hPa Calm     98% 0.00in /  0mm 0.00 W/m2 OVC
22:14 71.1 °F /  21.7 °C 70.5 °F /  21.4 °C 30.05in /  1017.5hPa Calm     98% 0.00in /  0mm 0.00 W/m2 OVC
22:19 71.1 °F /  21.7 °C 70.5 °F /  21.4 °C 30.05in /  1017.5hPa Calm     98% 0.00in /  0mm 0.00 W/m2 OVC
22:24 70.9 °F /  21.6 °C 70.3 °F /  21.3 °C 30.05in /  1017.5hPa Calm     98% 0.00in /  0mm 0.00 W/m2 OVC
22:29 70.9 °F /  21.6 °C 70.3 °F /  21.3 °C 30.05in /  1017.5hPa Calm     98% 0.00in /  0mm 0.00 W/m2 OVC
22:34 70.5 °F /  21.4 °C 69.9 °F /  21.1 °C 30.05in /  1017.5hPa Calm     98% 0.00in /  0mm 0.00 W/m2 -RA
22:39 70.5 °F /  21.4 °C 69.9 °F /  21.1 °C 30.05in /  1017.5hPa Calm     98% 0.00in /  0mm 0.00 W/m2 -RA
22:44 70.5 °F /  21.4 °C 69.9 °F /  21.1 °C 30.04in /  1017.2hPa Calm     98% 0.00in /  0mm 0.00 W/m2 -RA
22:49 70.5 °F /  21.4 °C 69.9 °F /  21.1 °C 30.04in /  1017.2hPa Calm     98% 0.00in /  0mm 0.00 W/m2 -RA
22:54 70.3 °F /  21.3 °C 69.7 °F /  20.9 °C 30.04in /  1017.2hPa Calm     98% 0.00in /  0mm 0.00 W/m2 -RA
22:59 70.3 °F /  21.3 °C 69.7 °F /  20.9 °C 30.04in /  1017.2hPa Calm     98% 0.00in /  0mm 0.00 W/m2 -RA
23:04 70.3 °F /  21.3 °C 69.7 °F /  20.9 °C 30.04in /  1017.2hPa Calm     98% 0.00in /  0mm 0.00 W/m2 OVC
23:09 70.3 °F /  21.3 °C 69.7 °F /  20.9 °C 30.04in /  1017.2hPa Calm     98% 0.00in /  0mm 0.00 W/m2 OVC
23:14 70.2 °F /  21.2 °C 69.6 °F /  20.9 °C 30.04in /  1017.2hPa Calm     98% 0.00in /  0mm 0.00 W/m2 OVC
23:19 70.0 °F /  21.1 °C 69.4 °F /  20.8 °C 30.04in /  1017.2hPa Calm     98% 0.00in /  0mm 0.00 W/m2 OVC
23:24 70.0 °F /  21.1 °C 69.4 °F /  20.8 °C 30.04in /  1017.2hPa Calm     98% 0.00in /  0mm 0.00 W/m2 OVC
23:29 69.8 °F /  21 °C 69.2 °F /  20.7 °C 30.03in /  1016.8hPa Calm     98% 0.00in /  0mm 0.00 W/m2 OVC
23:34 69.8 °F /  21 °C 69.2 °F /  20.7 °C 30.03in /  1016.8hPa Calm     98% 0.00in /  0mm 0.00 W/m2 OVC
23:39 69.8 °F /  21 °C 69.2 °F /  20.7 °C 30.03in /  1016.8hPa Calm     98% 0.00in /  0mm 0.00 W/m2 OVC
23:44 69.8 °F /  21 °C 69.2 °F /  20.7 °C 30.03in /  1016.8hPa Calm     98% 0.00in /  0mm 0.00 W/m2 OVC
23:49 69.8 °F /  21 °C 69.2 °F /  20.7 °C 30.03in /  1016.8hPa Calm     98% 0.00in /  0mm 0.00 W/m2 OVC
23:54 69.8 °F /  21 °C 69.2 °F /  20.7 °C 30.03in /  1016.8hPa Calm     98% 0.00in /  0mm 0.00 W/m2 OVC
23:59 69.8 °F /  21 °C 69.2 °F /  20.7 °C 30.03in /  1016.8hPa Calm     98% 0.00in /  0mm 0.00 W/m2 OVC
Juneau County Weather
Compliments of Weather Underground - 5.75 mb